Time;durP1;ratioP1;P1;durP2;ratioP2;P2;SDS_P1;SDS_P2;PMS_P1;PMS_P2;Temp;Humidity;BMP_temperature;BMP_pressure;BME280_temperature;BME280_humidity;BME280_pressure;Samples;Min_cycle;Max_cycle;Signal;HPM_P1;HPM_P2
2021/09/13 00:01:43;;;;;;;7.10;6.50;;;14.80;99.90;;;;;;5031213;28;20468;-72
2021/09/13 00:04:08;;;;;;;8.02;7.00;;;14.90;99.90;;;;;;5030838;28;20026;-71
2021/09/13 00:06:34;;;;;;;9.52;6.75;;;14.90;99.90;;;;;;5030309;28;20084;-71
2021/09/13 00:09:00;;;;;;;13.30;8.00;;;14.90;99.90;;;;;;5030778;28;20551;-71
2021/09/13 00:11:25;;;;;;;9.45;6.88;;;14.90;99.90;;;;;;5030906;28;20040;-71
2021/09/13 00:13:51;;;;;;;8.60;7.00;;;14.80;99.90;;;;;;5030792;28;20399;-71
2021/09/13 00:16:17;;;;;;;7.65;6.88;;;14.70;99.90;;;;;;5030125;28;20029;-71
2021/09/13 00:18:42;;;;;;;7.25;6.55;;;14.70;99.90;;;;;;5030753;28;20415;-71
2021/09/13 00:21:08;;;;;;;10.13;7.45;;;14.70;99.90;;;;;;5030522;28;20052;-71
2021/09/13 00:23:33;;;;;;;9.93;7.80;;;14.70;99.90;;;;;;5030719;28;20021;-70
2021/09/13 00:25:59;;;;;;;9.57;8.05;;;14.70;99.90;;;;;;5030164;28;20025;-72
2021/09/13 00:28:25;;;;;;;9.63;8.68;;;14.70;99.90;;;;;;5030475;28;20025;-70
2021/09/13 00:30:50;;;;;;;9.30;8.27;;;14.70;99.90;;;;;;5030745;28;20087;-71
2021/09/13 00:33:16;;;;;;;11.45;7.95;;;14.70;99.90;;;;;;5030645;28;20535;-72
2021/09/13 00:35:42;;;;;;;9.02;8.13;;;14.60;99.90;;;;;;5029704;28;20041;-72
2021/09/13 00:38:07;;;;;;;8.38;7.57;;;14.60;99.90;;;;;;5030599;28;20112;-71
2021/09/13 00:40:33;;;;;;;8.80;7.47;;;14.50;99.90;;;;;;5030547;28;20117;-70
2021/09/13 00:43:01;;;;;;;8.43;7.63;;;14.40;99.90;;;;;;5030190;28;20057;-70
2021/09/13 00:45:27;;;;;;;9.40;7.32;;;14.50;99.90;;;;;;5029863;28;20045;-70
2021/09/13 00:47:52;;;;;;;9.82;7.50;;;14.50;99.90;;;;;;5029235;28;20463;-71
2021/09/13 00:50:18;;;;;;;8.23;7.38;;;14.50;99.90;;;;;;5030727;28;20025;-70
2021/09/13 00:52:50;;;;;;;8.48;7.65;;;14.50;99.90;;;;;;5030522;28;20471;-71
2021/09/13 00:55:16;;;;;;;11.98;7.72;;;14.50;99.90;;;;;;5029783;28;20040;-71
2021/09/13 00:57:41;;;;;;;11.00;7.53;;;14.50;99.90;;;;;;5030585;28;20029;-71
2021/09/13 01:00:09;;;;;;;8.35;7.55;;;14.60;99.90;;;;;;5030442;28;20053;-72
2021/09/13 01:02:35;;;;;;;13.48;7.60;;;14.70;99.90;;;;;;5030892;28;20538;-71
2021/09/13 01:05:01;;;;;;;7.55;6.85;;;14.70;99.90;;;;;;5029669;28;20022;-71
2021/09/13 01:07:26;;;;;;;6.93;6.25;;;14.70;99.90;;;;;;5030309;28;20025;-72
2021/09/13 01:09:52;;;;;;;7.50;5.90;;;14.70;99.90;;;;;;5031066;28;20017;-69
2021/09/13 01:12:18;;;;;;;6.85;5.63;;;14.70;99.90;;;;;;5033252;28;20053;-69
2021/09/13 01:14:44;;;;;;;5.45;5.05;;;14.60;99.90;;;;;;5033614;28;20438;-71
2021/09/13 01:17:10;;;;;;;7.28;5.57;;;14.40;99.90;;;;;;5034200;28;20025;-72
2021/09/13 01:19:36;;;;;;;9.50;5.57;;;14.50;99.90;;;;;;5034081;28;20492;-73
2021/09/13 01:22:04;;;;;;;6.68;5.90;;;14.60;99.90;;;;;;5033901;28;20147;-72
2021/09/13 01:24:31;;;;;;;6.88;5.55;;;14.80;99.90;;;;;;5033109;28;20150;-71
2021/09/13 01:27:04;;;;;;;6.80;5.25;;;14.70;99.90;;;;;;5034291;28;20037;-70
2021/09/13 01:29:30;;;;;;;8.52;5.97;;;14.80;99.90;;;;;;5034565;28;20127;-70
2021/09/13 01:31:56;;;;;;;7.30;5.72;;;14.80;99.90;;;;;;5034257;28;20025;-71
2021/09/13 01:34:22;;;;;;;9.00;6.60;;;14.90;99.90;;;;;;5033803;28;20021;-71
2021/09/13 01:36:47;;;;;;;6.88;6.13;;;15.00;99.90;;;;;;5034131;28;20483;-73
2021/09/13 01:39:13;;;;;;;8.15;6.70;;;15.10;99.90;;;;;;5034383;28;20065;-71
2021/09/13 01:41:39;;;;;;;10.30;6.60;;;15.00;99.90;;;;;;5034396;28;20021;-71
2021/09/13 01:44:04;;;;;;;9.57;7.40;;;15.10;99.90;;;;;;5033653;28;20063;-71
2021/09/13 01:46:30;;;;;;;7.50;6.78;;;15.00;99.90;;;;;;5033800;28;20028;-71
2021/09/13 01:48:56;;;;;;;9.13;6.43;;;15.10;99.90;;;;;;5034079;28;20556;-70
2021/09/13 01:51:22;;;;;;;7.90;7.10;;;14.90;99.90;;;;;;5033170;28;20028;-71
2021/09/13 01:53:47;;;;;;;7.78;6.97;;;14.90;99.90;;;;;;5033331;28;20079;-70
2021/09/13 01:56:14;;;;;;;11.07;7.22;;;14.90;99.90;;;;;;5031412;28;20103;-71
2021/09/13 01:58:40;;;;;;;7.55;6.75;;;15.00;99.90;;;;;;5033426;28;20654;-70
2021/09/13 02:01:05;;;;;;;17.33;7.95;;;14.90;99.90;;;;;;5033496;28;20036;-72
2021/09/13 02:03:31;;;;;;;8.27;6.88;;;15.00;99.90;;;;;;5033182;28;20040;-71
2021/09/13 02:05:57;;;;;;;8.48;7.15;;;14.90;99.90;;;;;;5032278;28;20026;-71
2021/09/13 02:08:22;;;;;;;8.65;7.50;;;15.00;99.90;;;;;;5033092;28;20070;-72
2021/09/13 02:10:49;;;;;;;7.95;6.70;;;15.10;99.90;;;;;;5033630;28;20033;-69
2021/09/13 02:13:15;;;;;;;7.25;6.15;;;15.00;99.90;;;;;;5033559;28;20025;-73
2021/09/13 02:15:41;;;;;;;7.80;6.07;;;15.00;99.90;;;;;;5032629;28;20392;-70
2021/09/13 02:18:06;;;;;;;8.15;6.65;;;15.00;99.90;;;;;;5033023;28;20033;-71
2021/09/13 02:20:32;;;;;;;8.38;6.85;;;15.10;99.90;;;;;;5032924;28;20030;-70
2021/09/13 02:22:58;;;;;;;9.18;7.05;;;15.10;99.90;;;;;;5031851;28;20026;-71
2021/09/13 02:25:23;;;;;;;8.60;6.22;;;15.10;99.90;;;;;;5032073;28;20021;-70
2021/09/13 02:27:49;;;;;;;8.98;6.90;;;15.00;99.90;;;;;;5032713;28;20045;-71
2021/09/13 02:30:15;;;;;;;7.63;6.85;;;15.00;99.90;;;;;;5031156;28;20048;-72
2021/09/13 02:32:40;;;;;;;8.88;6.72;;;15.00;99.90;;;;;;5032754;28;20025;-70
2021/09/13 02:35:07;;;;;;;8.95;7.20;;;15.00;99.90;;;;;;5032059;28;20075;-71
2021/09/13 02:37:34;;;;;;;8.23;7.43;;;15.00;99.90;;;;;;5032408;28;20082;-72
2021/09/13 02:40:01;;;;;;;9.48;7.70;;;14.90;99.90;;;;;;5032367;28;20450;-71
2021/09/13 02:42:27;;;;;;;12.57;7.78;;;14.90;99.90;;;;;;5032756;28;20072;-71
2021/09/13 02:44:53;;;;;;;8.30;7.40;;;15.00;99.90;;;;;;5031800;28;20108;-71
2021/09/13 02:47:18;;;;;;;11.23;7.50;;;14.90;99.90;;;;;;5032666;28;20101;-70
2021/09/13 02:49:44;;;;;;;8.50;7.20;;;14.90;99.90;;;;;;5032367;28;20022;-71
2021/09/13 02:52:10;;;;;;;7.22;6.60;;;14.80;99.90;;;;;;5032046;28;20380;-71
2021/09/13 02:54:35;;;;;;;8.48;7.03;;;14.70;99.90;;;;;;5031507;28;20087;-72
2021/09/13 02:57:01;;;;;;;8.10;7.30;;;14.80;99.90;;;;;;5090552;22;20506;-74
2021/09/13 02:59:27;;;;;;;8.63;7.60;;;14.80;99.90;;;;;;5045875;28;20017;-73
2021/09/13 03:01:52;;;;;;;7.43;6.80;;;14.80;99.90;;;;;;5052410;28;20102;-74
2021/09/13 03:04:18;;;;;;;8.32;7.38;;;14.80;99.90;;;;;;5051799;28;20021;-75
2021/09/13 03:06:44;;;;;;;10.25;7.57;;;14.90;99.90;;;;;;5052224;28;20024;-74
2021/09/13 03:09:09;;;;;;;9.32;8.32;;;14.80;99.90;;;;;;5051199;28;20029;-74
2021/09/13 03:11:35;;;;;;;10.63;7.72;;;14.80;99.90;;;;;;5052371;28;20184;-74
2021/09/13 03:14:00;;;;;;;8.38;7.47;;;14.90;99.90;;;;;;5052128;28;20052;-75
2021/09/13 03:16:26;;;;;;;8.32;7.00;;;14.80;99.90;;;;;;5051474;28;20029;-74
2021/09/13 03:18:52;;;;;;;11.40;8.13;;;14.80;99.90;;;;;;5053850;28;20505;-73
2021/09/13 03:21:18;;;;;;;9.90;7.15;;;14.70;99.90;;;;;;5052032;28;20512;-74
2021/09/13 03:23:43;;;;;;;9.90;7.35;;;14.80;99.90;;;;;;5050615;28;20398;-73
2021/09/13 03:26:09;;;;;;;13.35;6.68;;;14.90;99.90;;;;;;5051360;28;20104;-74
2021/09/13 03:28:35;;;;;;;8.07;7.30;;;14.90;99.90;;;;;;5050600;28;20021;-75
2021/09/13 03:31:03;;;;;;;7.82;7.03;;;14.90;99.90;;;;;;5052146;28;20475;-75
2021/09/13 03:33:29;;;;;;;8.32;7.05;;;14.90;99.90;;;;;;5050729;28;20040;-75
2021/09/13 03:35:55;;;;;;;8.00;7.20;;;14.90;99.90;;;;;;5050900;28;20029;-75
2021/09/13 03:38:21;;;;;;;10.18;7.03;;;14.90;99.90;;;;;;5051056;28;20035;-75
2021/09/13 03:40:47;;;;;;;9.35;7.15;;;14.90;99.90;;;;;;5051812;28;20096;-75
2021/09/13 03:43:13;;;;;;;7.55;6.90;;;14.90;99.90;;;;;;5050447;28;20471;-76
2021/09/13 03:45:39;;;;;;;7.53;6.60;;;14.80;99.90;;;;;;5049791;28;20082;-75
2021/09/13 03:48:05;;;;;;;9.65;7.60;;;14.80;99.90;;;;;;5051691;28;20066;-76
2021/09/13 03:50:31;;;;;;;8.77;7.90;;;14.80;99.90;;;;;;5051507;28;20494;-75
2021/09/13 03:52:56;;;;;;;9.35;7.50;;;14.80;99.90;;;;;;5051093;28;20025;-75
2021/09/13 03:55:22;;;;;;;7.20;6.53;;;14.70;99.90;;;;;;5050489;28;20024;-75
2021/09/13 03:57:48;;;;;;;7.30;6.63;;;14.60;99.90;;;;;;5050001;28;20025;-75
2021/09/13 04:00:15;;;;;;;7.38;6.78;;;14.50;99.90;;;;;;5050415;28;20337;-75
2021/09/13 04:02:45;;;;;;;11.77;7.45;;;14.50;99.90;;;;;;5051248;28;20075;-75
2021/09/13 04:05:13;;;;;;;9.35;7.82;;;14.70;99.90;;;;;;5050654;28;20504;-75
2021/09/13 04:08:07;;;;;;;9.75;8.40;;;14.60;99.90;;;;;;5051355;28;20099;-75
2021/09/13 04:11:00;;;;;;;8.85;7.95;;;14.60;99.90;;;;;;5050750;28;20124;-75
2021/09/13 04:13:25;;;;;;;13.38;8.07;;;14.50;99.90;;;;;;5051432;28;20049;-75
2021/09/13 04:15:51;;;;;;;8.77;7.90;;;14.50;99.90;;;;;;5049539;28;20469;-75
2021/09/13 04:18:17;;;;;;;10.73;8.57;;;14.40;99.90;;;;;;5053506;28;20025;-75
2021/09/13 04:20:43;;;;;;;10.85;8.90;;;14.40;99.90;;;;;;5053992;28;20067;-73
2021/09/13 04:23:09;;;;;;;11.43;10.23;;;14.30;99.90;;;;;;5054725;28;20025;-74
2021/09/13 04:25:34;;;;;;;17.27;10.00;;;14.20;99.90;;;;;;5053498;28;20090;-75
2021/09/13 04:28:00;;;;;;;12.93;9.90;;;14.20;99.90;;;;;;5051382;28;20104;-75
2021/09/13 04:30:26;;;;;;;15.73;10.93;;;14.20;99.90;;;;;;5051117;28;20540;-75
2021/09/13 04:32:52;;;;;;;11.77;10.57;;;14.10;99.90;;;;;;5052008;28;20034;-76
2021/09/13 04:35:18;;;;;;;14.57;10.88;;;14.10;99.90;;;;;;5050568;28;20033;-75
2021/09/13 04:37:44;;;;;;;12.43;10.27;;;14.00;99.90;;;;;;5051010;28;20112;-74
2021/09/13 04:40:11;;;;;;;12.23;10.60;;;14.00;99.90;;;;;;5050864;28;20029;-75
2021/09/13 04:42:37;;;;;;;11.07;9.77;;;13.90;99.90;;;;;;5050546;28;20021;-75
2021/09/13 04:45:02;;;;;;;12.60;10.68;;;13.90;99.90;;;;;;5048833;28;20044;-76
2021/09/13 04:47:28;;;;;;;15.77;10.02;;;14.00;99.90;;;;;;5051146;28;20131;-74
2021/09/13 04:49:54;;;;;;;12.27;10.13;;;14.00;99.90;;;;;;5051030;28;20029;-75
2021/09/13 04:52:19;;;;;;;11.48;10.23;;;14.00;99.90;;;;;;5051214;28;20085;-74
2021/09/13 04:54:45;;;;;;;18.70;10.25;;;14.10;99.90;;;;;;5050955;28;20498;-75
2021/09/13 04:57:10;;;;;;;12.45;10.13;;;14.10;99.90;;;;;;5073928;28;20071;-74
2021/09/13 04:59:36;;;;;;;14.23;9.98;;;14.20;99.90;;;;;;5051187;28;20043;-74
2021/09/13 05:02:02;;;;;;;12.55;10.02;;;14.20;99.90;;;;;;5051082;28;20041;-73
2021/09/13 05:04:28;;;;;;;14.13;10.10;;;14.20;99.90;;;;;;5050125;28;20024;-74
2021/09/13 05:06:53;;;;;;;10.90;9.77;;;14.20;99.90;;;;;;5049819;28;20496;-74
2021/09/13 05:09:19;;;;;;;11.57;9.57;;;14.20;99.90;;;;;;5038692;28;20675;-76
2021/09/13 05:11:46;;;;;;;11.38;9.50;;;14.10;99.90;;;;;;5049343;28;20029;-79
2021/09/13 05:14:12;;;;;;;10.48;9.07;;;14.10;99.90;;;;;;5050289;28;20017;-76
2021/09/13 05:16:37;;;;;;;10.45;9.35;;;14.00;99.90;;;;;;5050112;28;20057;-78
2021/09/13 05:19:04;;;;;;;9.80;8.77;;;14.00;99.90;;;;;;5050539;28;20060;-77
2021/09/13 05:21:32;;;;;;;11.50;9.57;;;13.90;99.90;;;;;;5050027;28;20088;-76
2021/09/13 05:23:58;;;;;;;10.98;8.57;;;14.00;99.90;;;;;;5047216;28;20031;-76
2021/09/13 05:26:24;;;;;;;9.82;8.82;;;13.90;99.90;;;;;;5047094;28;20108;-77
2021/09/13 05:28:49;;;;;;;9.23;7.88;;;13.90;99.90;;;;;;5031261;28;20028;-79
2021/09/13 05:31:15;;;;;;;10.38;8.50;;;13.90;99.90;;;;;;5031134;28;20101;-77
2021/09/13 05:33:40;;;;;;;10.27;9.20;;;13.90;99.90;;;;;;5032104;28;20056;-77
2021/09/13 05:36:06;;;;;;;12.32;8.90;;;13.90;99.90;;;;;;5037429;28;20531;-77
2021/09/13 05:38:35;;;;;;;11.63;10.00;;;13.90;99.90;;;;;;5047521;28;20032;-78
2021/09/13 05:41:00;;;;;;;10.38;8.98;;;13.90;99.90;;;;;;5050025;28;20155;-78
2021/09/13 05:43:26;;;;;;;12.10;9.00;;;13.80;99.90;;;;;;5049189;28;20487;-78
2021/09/13 05:45:54;;;;;;;10.25;9.25;;;13.80;99.90;;;;;;5034973;28;20547;-76
2021/09/13 05:48:20;;;;;;;12.85;9.13;;;13.90;99.90;;;;;;5050907;28;20028;-77
2021/09/13 05:50:46;;;;;;;14.57;9.40;;;13.90;99.90;;;;;;5051234;28;20025;-77
2021/09/13 05:53:11;;;;;;;15.35;10.85;;;14.00;99.90;;;;;;5041785;28;20491;-77
2021/09/13 05:55:42;;;;;;;9.98;9.07;;;14.10;99.90;;;;;;5030169;28;20076;-77
2021/09/13 05:58:08;;;;;;;14.25;11.45;;;14.10;99.90;;;;;;5034131;28;20026;-76
2021/09/13 06:00:34;;;;;;;13.38;10.00;;;14.20;99.90;;;;;;5034665;28;20025;-76
2021/09/13 06:02:59;;;;;;;15.25;11.60;;;14.20;99.90;;;;;;5052491;28;20073;-76
2021/09/13 06:05:25;;;;;;;16.48;13.15;;;14.30;99.90;;;;;;5061267;28;20052;-77
2021/09/13 06:07:50;;;;;;;12.88;10.50;;;14.40;99.90;;;;;;5053358;28;20021;-76
2021/09/13 06:10:16;;;;;;;15.02;10.15;;;14.40;99.90;;;;;;5068598;28;20021;-77
2021/09/13 06:12:42;;;;;;;13.15;9.75;;;14.40;99.90;;;;;;5053248;28;20367;-76
2021/09/13 06:15:08;;;;;;;10.52;8.90;;;14.50;99.90;;;;;;5052630;28;20074;-77
2021/09/13 06:17:34;;;;;;;15.85;9.23;;;14.40;99.90;;;;;;5053128;28;20544;-76
2021/09/13 06:20:01;;;;;;;11.60;8.90;;;14.40;99.90;;;;;;5053215;28;20613;-77
2021/09/13 06:22:26;;;;;;;13.50;9.73;;;14.40;99.90;;;;;;5052873;28;20103;-76
2021/09/13 06:24:52;;;;;;;17.55;8.10;;;14.30;99.90;;;;;;5052153;28;20155;-77
2021/09/13 06:27:18;;;;;;;13.00;8.20;;;14.40;99.90;;;;;;5052821;28;20166;-75
2021/09/13 06:29:43;;;;;;;10.18;8.05;;;14.50;99.90;;;;;;5053278;28;20033;-75
2021/09/13 06:32:09;;;;;;;8.93;7.78;;;14.50;99.90;;;;;;5052869;28;20037;-75
2021/09/13 06:34:35;;;;;;;13.23;8.05;;;14.60;99.90;;;;;;5051866;28;20037;-75
2021/09/13 06:37:00;;;;;;;10.48;7.22;;;14.60;99.90;;;;;;5052641;28;20060;-75
2021/09/13 06:39:26;;;;;;;10.93;7.63;;;14.60;99.90;;;;;;5052176;28;20057;-75
2021/09/13 06:41:52;;;;;;;7.35;6.65;;;14.70;99.90;;;;;;5052754;28;20106;-76
2021/09/13 06:44:22;;;;;;;9.95;6.82;;;14.70;99.90;;;;;;5052288;28;20029;-76
2021/09/13 06:46:51;;;;;;;7.70;7.00;;;14.80;99.90;;;;;;5052859;28;20025;-77
2021/09/13 06:49:18;;;;;;;14.40;6.60;;;14.70;99.90;;;;;;5052497;28;20014;-77
2021/09/13 06:51:44;;;;;;;7.07;6.38;;;14.90;99.90;;;;;;5051319;28;20032;-76
2021/09/13 06:54:10;;;;;;;7.78;6.07;;;15.10;99.90;;;;;;5050968;28;20029;-75
2021/09/13 06:56:36;;;;;;;5.20;4.80;;;15.50;99.90;;;;;;5052076;28;20037;-75
2021/09/13 06:59:01;;;;;;;5.93;5.32;;;15.60;99.90;;;;;;5051406;28;20028;-77
2021/09/13 07:01:31;;;;;;;5.70;5.20;;;15.60;99.90;;;;;;5038392;28;20032;-73
2021/09/13 07:03:57;;;;;;;7.55;4.65;;;15.60;99.90;;;;;;5044066;28;20506;-73
2021/09/13 07:06:27;;;;;;;7.28;5.15;;;15.50;99.90;;;;;;5050953;28;20129;-74
2021/09/13 07:08:54;;;;;;;9.30;5.70;;;15.40;99.90;;;;;;5050654;28;20051;-75
2021/09/13 07:11:19;;;;;;;6.22;5.50;;;15.40;99.90;;;;;;5052210;28;20033;-75
2021/09/13 07:13:45;;;;;;;6.88;5.28;;;15.40;99.90;;;;;;5052023;28;20033;-76
2021/09/13 07:16:11;;;;;;;8.23;5.90;;;15.40;99.90;;;;;;5052218;28;20067;-77
2021/09/13 07:18:36;;;;;;;6.20;5.63;;;15.50;99.90;;;;;;5051180;28;20028;-74
2021/09/13 07:21:02;;;;;;;5.53;5.00;;;15.60;99.90;;;;;;5051638;28;20514;-74
2021/09/13 07:23:28;;;;;;;5.97;5.40;;;15.70;99.90;;;;;;5051464;28;20086;-73
2021/09/13 07:25:53;;;;;;;6.15;5.55;;;15.80;99.90;;;;;;5049626;28;20032;-73
2021/09/13 07:28:20;;;;;;;5.57;5.07;;;15.90;99.90;;;;;;5051414;28;20025;-73
2021/09/13 07:30:47;;;;;;;5.55;5.07;;;15.90;99.90;;;;;;5051560;28;20021;-75
2021/09/13 07:33:13;;;;;;;5.72;5.13;;;16.10;99.90;;;;;;5051543;28;20484;-75
2021/09/13 07:35:39;;;;;;;10.35;5.78;;;16.20;99.90;;;;;;5050720;28;20459;-73
2021/09/13 07:38:04;;;;;;;8.75;5.75;;;16.30;99.90;;;;;;5051209;28;20083;-75
2021/09/13 07:40:30;;;;;;;5.97;4.88;;;16.30;99.90;;;;;;5050846;28;20471;-75
2021/09/13 07:42:56;;;;;;;6.68;6.03;;;16.40;99.90;;;;;;5047881;28;20075;-74
2021/09/13 07:45:22;;;;;;;6.85;5.32;;;16.60;99.90;;;;;;5051587;28;20035;-76
2021/09/13 07:47:48;;;;;;;5.25;4.47;;;16.70;99.90;;;;;;5051665;28;20115;-77
2021/09/13 07:50:14;;;;;;;7.60;4.82;;;16.90;99.90;;;;;;5051954;28;20021;-76
2021/09/13 07:52:39;;;;;;;5.55;5.05;;;17.30;99.90;;;;;;5052279;28;20402;-76
2021/09/13 07:55:06;;;;;;;4.68;4.28;;;17.40;99.90;;;;;;5050727;28;20074;-76
2021/09/13 07:57:32;;;;;;;3.90;3.47;;;17.50;99.90;;;;;;5051776;28;20044;-76
2021/09/13 07:59:57;;;;;;;7.03;3.95;;;17.80;99.90;;;;;;5050888;28;20029;-76
2021/09/13 08:02:25;;;;;;;3.25;3.05;;;18.20;99.90;;;;;;5050982;28;20032;-76
2021/09/13 08:04:50;;;;;;;4.22;3.50;;;18.40;99.90;;;;;;5050683;28;20112;-76
2021/09/13 08:07:16;;;;;;;4.22;3.00;;;18.80;99.90;;;;;;5053166;28;20525;-77
2021/09/13 08:09:42;;;;;;;3.67;3.30;;;19.20;99.90;;;;;;5051246;28;20032;-77
2021/09/13 08:12:07;;;;;;;5.10;3.28;;;19.60;99.90;;;;;;5051674;28;20025;-77
2021/09/13 08:14:33;;;;;;;4.32;2.70;;;20.30;99.90;;;;;;5050749;28;20036;-76
2021/09/13 08:16:59;;;;;;;2.80;2.60;;;20.90;99.90;;;;;;5049580;28;20040;-77
2021/09/13 08:19:24;;;;;;;2.83;2.45;;;21.00;99.90;;;;;;5033589;28;20037;-77
2021/09/13 08:21:50;;;;;;;5.88;2.95;;;21.00;99.90;;;;;;5031192;28;20493;-76
2021/09/13 08:24:16;;;;;;;4.03;2.58;;;22.00;99.90;;;;;;5029947;28;20025;-73
2021/09/13 08:26:42;;;;;;;4.95;2.72;;;22.30;99.90;;;;;;5030670;28;20080;-73
2021/09/13 08:29:13;;;;;;;2.78;2.58;;;23.20;99.90;;;;;;5035228;28;20039;-75
2021/09/13 08:31:39;;;;;;;2.47;2.28;;;23.30;99.90;;;;;;5050506;28;20711;-75
2021/09/13 08:34:05;;;;;;;6.68;2.22;;;23.60;99.90;;;;;;5036723;28;20048;-75
2021/09/13 08:36:31;;;;;;;2.15;2.03;;;23.50;99.90;;;;;;5028227;28;20135;-76
2021/09/13 08:38:56;;;;;;;4.15;2.50;;;22.90;99.90;;;;;;5029642;28;20029;-76
2021/09/13 08:41:22;;;;;;;2.72;2.40;;;23.30;99.90;;;;;;5030774;28;20109;-73
2021/09/13 08:43:48;;;;;;;2.35;2.15;;;23.50;99.90;;;;;;5030622;28;20100;-75
2021/09/13 08:46:21;;;;;;;5.80;2.55;;;23.50;99.90;;;;;;5032163;28;20029;-74
2021/09/13 08:49:05;;;;;;;4.28;2.30;;;24.20;99.90;;;;;;5050511;28;20417;-74
2021/09/13 08:51:31;;;;;;;3.55;2.78;;;24.70;99.90;;;;;;5050614;28;20109;-75
2021/09/13 08:54:04;;;;;;;6.32;2.22;;;24.20;99.90;;;;;;5048960;28;20542;-77
2021/09/13 08:56:41;;;;;;;2.60;2.40;;;23.70;99.90;;;;;;5062816;22;20038;-74
2021/09/13 08:59:14;;;;;;;6.38;2.33;;;24.10;99.90;;;;;;5033508;28;20405;-74
2021/09/13 09:01:40;;;;;;;2.97;1.98;;;25.20;99.90;;;;;;5030324;28;20080;-77
2021/09/13 09:04:08;;;;;;;4.53;2.00;;;26.20;99.90;;;;;;5043366;28;20104;-76
2021/09/13 09:06:40;;;;;;;4.50;2.20;;;26.30;99.90;;;;;;5033915;28;20021;-77
2021/09/13 09:09:11;;;;;;;3.33;2.03;;;26.00;99.90;;;;;;5030716;28;20022;-76
2021/09/13 09:11:49;;;;;;;3.92;2.50;;;25.70;99.90;;;;;;5030123;28;20033;-74
2021/09/13 09:14:25;;;;;;;5.68;2.30;;;25.80;99.90;;;;;;5029814;28;20021;-75
2021/09/13 09:16:56;;;;;;;2.63;2.42;;;25.80;99.90;;;;;;5030257;28;20475;-74
2021/09/13 09:19:22;;;;;;;4.00;2.00;;;26.20;99.90;;;;;;5030584;28;20022;-76
2021/09/13 09:21:48;;;;;;;5.82;2.67;;;25.50;99.90;;;;;;5030771;28;20098;-74
2021/09/13 09:24:14;;;;;;;3.75;2.55;;;25.50;99.90;;;;;;5030649;28;20109;-76
2021/09/13 09:26:40;;;;;;;3.05;2.53;;;25.20;99.90;;;;;;5038970;28;20521;-76
2021/09/13 09:29:05;;;;;;;2.33;2.13;;;25.80;99.90;;;;;;5031958;28;20042;-76
2021/09/13 09:31:41;;;;;;;2.80;2.20;;;25.80;99.90;;;;;;5052110;28;20506;-75
2021/09/13 09:34:13;;;;;;;4.90;2.33;;;26.80;99.90;;;;;;5053633;28;20025;-75
2021/09/13 09:36:38;;;;;;;;;;;26.50;99.90;;;;;;5062571;28;20020;-74
2021/09/13 09:39:14;;;;;;;3.67;2.55;;;25.60;99.90;;;;;;5074044;28;20000;-74
2021/09/13 09:41:44;;;;;;;4.22;3.47;;;26.50;99.90;;;;;;5073657;28;20029;-76
2021/09/13 09:44:10;;;;;;;3.92;2.90;;;25.70;99.90;;;;;;5073853;28;20431;-75
2021/09/13 09:46:41;;;;;;;2.60;2.40;;;25.20;99.90;;;;;;5073172;28;20082;-75
2021/09/13 09:49:15;;;;;;;4.60;2.50;;;26.00;99.90;;;;;;5056152;28;20108;-76
2021/09/13 09:51:49;;;;;;;3.03;2.50;;;26.40;99.90;;;;;;5053904;28;20025;-76
2021/09/13 09:54:19;;;;;;;5.70;2.40;;;26.50;99.90;;;;;;5053031;28;20025;-77
2021/09/13 09:56:57;;;;;;;4.45;2.30;;;26.20;99.90;;;;;;5052903;28;20033;-76
2021/09/13 09:59:23;;;;;;;3.58;2.30;;;26.40;99.90;;;;;;5067767;28;20033;-77
2021/09/13 10:01:56;;;;;;;3.60;2.25;;;27.90;99.90;;;;;;5071418;28;20036;-77
2021/09/13 10:04:27;;;;;;;2.75;2.55;;;28.40;99.90;;;;;;5064162;28;20013;-76
2021/09/13 10:07:00;;;;;;;2.35;2.15;;;29.00;99.60;;;;;;5052878;28;20045;-77
2021/09/13 10:09:29;;;;;;;3.22;2.25;;;29.60;97.80;;;;;;5053486;28;20029;-76
2021/09/13 10:11:59;;;;;;;3.03;2.72;;;28.30;98.10;;;;;;5044254;28;20021;-75
2021/09/13 10:14:27;;;;;;;3.67;2.65;;;27.30;99.90;;;;;;5033463;28;20468;-75
2021/09/13 10:16:54;;;;;;;4.78;2.75;;;27.30;99.90;;;;;;5033443;28;20025;-75
2021/09/13 10:19:22;;;;;;;2.90;2.70;;;27.90;99.30;;;;;;5033137;28;20030;-76
2021/09/13 10:21:53;;;;;;;3.90;2.20;;;29.40;98.80;;;;;;5033137;28;20030;-75
2021/09/13 10:24:20;;;;;;;6.53;2.35;;;30.60;96.60;;;;;;5032414;28;20748;-75
2021/09/13 10:26:52;;;;;;;5.40;2.65;;;30.60;94.90;;;;;;5032640;28;20030;-75
2021/09/13 10:29:19;;;;;;;1.83;1.73;;;30.20;95.90;;;;;;5033002;28;20017;-75
2021/09/13 10:31:46;;;;;;;5.00;2.20;;;31.10;95.30;;;;;;5033075;28;20055;-76
2021/09/13 10:34:23;;;;;;;5.28;2.25;;;30.90;95.40;;;;;;5038008;28;20056;-76
2021/09/13 10:37:08;;;;;;;2.88;2.05;;;31.20;94.80;;;;;;5052455;28;20049;-75
2021/09/13 10:39:57;;;;;;;2.72;2.50;;;32.00;94.50;;;;;;5052564;28;20025;-76
2021/09/13 10:42:26;;;;;;;3.40;2.40;;;32.80;91.80;;;;;;5051575;28;20036;-75
2021/09/13 10:45:12;;;;;;;2.15;1.92;;;32.00;91.80;;;;;;5051979;28;20017;-75
2021/09/13 10:47:40;;;;;;;2.40;2.20;;;32.40;91.40;;;;;;5052263;28;20029;-75
2021/09/13 10:50:13;;;;;;;3.15;2.30;;;32.40;91.30;;;;;;5051905;28;20040;-75
2021/09/13 10:52:40;;;;;;;2.33;2.00;;;33.50;88.60;;;;;;5052314;28;20033;-76
2021/09/13 10:55:08;;;;;;;3.20;1.70;;;32.70;89.10;;;;;;5051976;28;20066;-76
2021/09/13 10:58:19;;;;;;;2.90;1.95;;;32.40;90.00;;;;;;5051933;28;20119;-75
2021/09/13 11:00:44;;;;;;;4.43;2.17;;;33.80;87.40;;;;;;5048555;28;20032;-73
2021/09/13 11:03:32;;;;;;;3.65;2.30;;;33.90;84.80;;;;;;5046605;28;20135;-72
2021/09/13 11:06:12;;;;;;;3.92;2.40;;;35.40;82.80;;;;;;5031605;28;20078;-75
2021/09/13 11:08:43;;;;;;;3.70;2.20;;;36.10;78.20;;;;;;5032115;28;20108;-75
2021/09/13 11:11:11;;;;;;;2.22;2.03;;;35.80;77.90;;;;;;5031757;28;20037;-75
2021/09/13 11:13:37;;;;;;;1.80;1.70;;;34.80;80.10;;;;;;5032316;28;20560;-75
2021/09/13 11:16:04;;;;;;;1.65;1.55;;;34.90;77.10;;;;;;5031766;28;20029;-77
2021/09/13 11:18:37;;;;;;;2.72;2.10;;;35.00;78.00;;;;;;5031484;28;20076;-75
2021/09/13 11:21:33;;;;;;;2.28;2.17;;;32.50;80.20;;;;;;5031744;28;20036;-75
2021/09/13 11:24:16;;;;;;;3.15;1.85;;;29.80;88.60;;;;;;5051659;28;20033;-75
2021/09/13 11:26:45;;;;;;;2.42;1.90;;;29.30;89.00;;;;;;5051114;28;20031;-75
2021/09/13 11:29:16;;;;;;;1.90;1.80;;;30.30;88.00;;;;;;5051301;28;20056;-75
2021/09/13 11:31:45;;;;;;;;;;;31.80;86.80;;;;;;5053199;28;20043;-75
2021/09/13 11:34:13;;;;;;;1.50;1.50;;;31.60;85.90;;;;;;5052382;28;19904;-74
2021/09/13 11:36:54;;;;;;;1.83;1.73;;;32.00;78.70;;;;;;5051622;28;20081;-74
2021/09/13 11:39:21;;;;;;;2.10;1.60;;;32.00;79.60;;;;;;5052512;28;20029;-74
2021/09/13 11:42:03;;;;;;;2.25;2.15;;;30.80;80.00;;;;;;5051753;28;20506;-74
2021/09/13 11:44:35;;;;;;;2.65;1.90;;;30.60;82.70;;;;;;5051064;28;20400;-75
2021/09/13 11:47:05;;;;;;;2.67;1.85;;;30.50;78.60;;;;;;5051701;28;20025;-75
2021/09/13 11:49:35;;;;;;;1.70;1.60;;;31.00;78.80;;;;;;5051132;28;20017;-75
2021/09/13 11:52:07;;;;;;;2.00;1.77;;;32.00;78.00;;;;;;5051627;28;20021;-74
2021/09/13 11:54:48;;;;;;;1.88;1.40;;;32.50;76.20;;;;;;5049702;28;20037;-74
2021/09/13 11:57:23;;;;;;;3.33;1.83;;;32.70;72.30;;;;;;5050652;28;20111;-74
2021/09/13 11:59:54;;;;;;;5.03;2.50;;;31.80;78.00;;;;;;5051603;28;20534;-74
2021/09/13 12:02:20;;;;;;;3.07;2.07;;;31.50;78.40;;;;;;5050992;28;20036;-75
2021/09/13 12:04:46;;;;;;;1.83;1.70;;;31.40;78.00;;;;;;5050350;28;20021;-75
2021/09/13 12:07:12;;;;;;;2.17;1.98;;;31.60;78.20;;;;;;5050198;28;20025;-75
2021/09/13 12:09:42;;;;;;;2.45;1.88;;;31.80;77.90;;;;;;5050733;28;20238;-74
2021/09/13 12:12:11;;;;;;;3.42;2.20;;;31.70;76.80;;;;;;5050699;28;20108;-75
2021/09/13 12:14:39;;;;;;;2.10;2.00;;;31.90;78.40;;;;;;5050553;28;20503;-75
2021/09/13 12:17:05;;;;;;;1.90;1.80;;;31.10;77.20;;;;;;5033350;28;20108;-75
2021/09/13 12:19:31;;;;;;;1.75;1.50;;;31.20;81.10;;;;;;5051762;28;20096;-75
2021/09/13 12:22:04;;;;;;;2.08;1.98;;;32.00;80.30;;;;;;5050865;28;20125;-75
2021/09/13 12:24:31;;;;;;;2.60;1.83;;;32.60;76.00;;;;;;5030530;28;20068;-75
2021/09/13 12:27:11;;;;;;;1.80;1.67;;;31.90;74.50;;;;;;5030629;28;20018;-75
2021/09/13 12:29:50;;;;;;;2.00;1.77;;;31.50;78.90;;;;;;5030742;28;20610;-75
2021/09/13 12:32:33;;;;;;;1.80;1.70;;;31.20;75.40;;;;;;5030927;28;20466;-75
2021/09/13 12:35:06;;;;;;;1.73;1.63;;;31.00;76.50;;;;;;5034447;28;20045;-75
2021/09/13 12:37:41;;;;;;;2.50;1.70;;;30.90;73.00;;;;;;5035714;28;20017;-74
2021/09/13 12:40:17;;;;;;;2.00;1.70;;;30.40;75.80;;;;;;5053694;28;20023;-74
2021/09/13 12:42:54;;;;;;;1.85;1.75;;;31.00;78.00;;;;;;5051001;28;20032;-74
2021/09/13 12:45:21;;;;;;;2.10;1.77;;;32.10;76.90;;;;;;5050363;28;20028;-75
2021/09/13 12:47:51;;;;;;;2.65;2.03;;;31.60;72.90;;;;;;5050689;28;20025;-75